Time;durP1;ratioP1;P1;durP2;ratioP2;P2;SDS_P1;SDS_P2;PMS_P1;PMS_P2;Temp;Humidity;BMP_temperature;BMP_pressure;BME280_temperature;BME280_humidity;BME280_pressure;Samples;Min_cycle;Max_cycle;Signal;HPM_P1;HPM_P2
2022/11/15 00:01:44;;;;;;;14.45;5.43;;;14.50;79.90;;;;;;7381499;19;20022;-84
2022/11/15 00:04:12;;;;;;;15.80;4.80;;;14.50;79.70;;;;;;7380917;19;20015;-84
2022/11/15 00:06:41;;;;;;;10.18;4.45;;;14.50;79.80;;;;;;7397820;19;20892;-84
2022/11/15 00:09:14;;;;;;;10.05;4.88;;;14.40;79.70;;;;;;7378521;19;20019;-84
2022/11/15 00:11:48;;;;;;;16.73;4.05;;;14.40;79.70;;;;;;7382740;19;20414;-84
2022/11/15 00:14:22;;;;;;;19.88;3.97;;;14.40;79.60;;;;;;7379577;19;20033;-83
2022/11/15 00:16:51;;;;;;;19.33;3.47;;;14.40;79.40;;;;;;7377952;19;20050;-83
2022/11/15 00:19:19;;;;;;;10.32;3.15;;;14.30;79.10;;;;;;7377346;19;20010;-83
2022/11/15 00:21:48;;;;;;;16.33;3.50;;;14.30;79.30;;;;;;7398226;19;20840;-84
2022/11/15 00:24:17;;;;;;;13.13;3.25;;;14.30;79.20;;;;;;7372831;19;20018;-83
2022/11/15 00:26:56;;;;;;;;;;;;;;;;;;;;;
2022/11/15 00:29:30;;;;;;;16.92;4.07;;;14.20;79.10;;;;;;7380940;19;20011;-85
2022/11/15 00:31:58;;;;;;;12.82;3.72;;;14.20;79.20;;;;;;7378942;19;20011;-84
2022/11/15 00:34:27;;;;;;;17.95;4.22;;;14.20;79.10;;;;;;7380874;19;20010;-84
2022/11/15 00:36:56;;;;;;;11.68;4.57;;;14.20;79.10;;;;;;7397510;19;20015;-83
2022/11/15 00:39:25;;;;;;;12.38;4.25;;;14.20;79.00;;;;;;7401796;19;20022;-85
2022/11/15 00:41:56;;;;;;;20.05;4.28;;;14.20;79.00;;;;;;7373409;19;20018;-85
2022/11/15 00:44:27;;;;;;;15.02;4.15;;;14.20;79.00;;;;;;7375716;19;20063;-85
2022/11/15 00:46:56;;;;;;;;;;;14.20;79.00;;;;;;7377197;19;20095;-84
2022/11/15 00:49:25;;;;;;;15.27;4.22;;;14.20;78.90;;;;;;7385711;19;19922;-84
2022/11/15 00:51:56;;;;;;;18.55;4.28;;;14.20;78.60;;;;;;7412017;19;20018;-84
2022/11/15 00:54:24;;;;;;;15.00;3.97;;;14.20;78.70;;;;;;7382135;19;20030;-83
2022/11/15 00:56:53;;;;;;;17.15;4.15;;;14.20;78.70;;;;;;7379978;19;20082;-83
2022/11/15 00:59:22;;;;;;;9.20;3.85;;;14.10;78.50;;;;;;7381769;19;20405;-83
2022/11/15 01:01:54;;;;;;;14.55;4.20;;;14.10;78.40;;;;;;7388381;19;20014;-84
2022/11/15 01:04:24;;;;;;;13.93;3.90;;;14.10;78.40;;;;;;7394757;19;20023;-84
2022/11/15 01:06:53;;;;;;;12.13;3.70;;;14.10;78.40;;;;;;7416869;19;20018;-86
2022/11/15 01:09:22;;;;;;;15.30;3.90;;;14.10;78.40;;;;;;7390608;19;20018;-83
2022/11/15 01:11:54;;;;;;;16.00;3.63;;;14.10;78.30;;;;;;7389939;19;20291;-84
2022/11/15 01:14:24;;;;;;;;;;;14.10;78.30;;;;;;7393249;19;20018;-84
2022/11/15 01:16:55;;;;;;;11.05;3.60;;;14.20;78.40;;;;;;7391789;19;20537;-84
2022/11/15 01:19:50;;;;;;;10.02;3.80;;;14.10;78.00;;;;;;7400096;19;19998;-83
2022/11/15 01:22:22;;;;;;;15.40;4.28;;;14.10;78.00;;;;;;7411976;19;20014;-84
2022/11/15 01:24:52;;;;;;;14.27;3.60;;;14.10;78.00;;;;;;7423006;19;20027;-84
2022/11/15 01:27:30;;;;;;;13.23;3.55;;;14.10;78.00;;;;;;7397315;19;20006;-84
2022/11/15 01:29:58;;;;;;;18.73;4.20;;;14.10;77.80;;;;;;7399230;19;20493;-85
2022/11/15 01:32:30;;;;;;;11.68;3.72;;;14.10;77.70;;;;;;7397754;19;20104;-84
2022/11/15 01:35:01;;;;;;;;;;;14.10;77.60;;;;;;7389715;19;20019;-84
2022/11/15 01:37:35;;;;;;;9.88;3.20;;;14.10;77.60;;;;;;7382757;19;19929;-84
2022/11/15 01:40:04;;;;;;;9.43;3.10;;;14.00;77.20;;;;;;7381788;19;20031;-84
2022/11/15 01:42:34;;;;;;;17.02;3.28;;;14.00;77.20;;;;;;7405235;19;20018;-84
2022/11/15 01:45:04;;;;;;;10.52;3.33;;;14.00;78.00;;;;;;7382086;19;20842;-84
2022/11/15 01:47:46;;;;;;;18.45;3.53;;;14.00;77.00;;;;;;7385110;19;20042;-84
2022/11/15 01:50:20;;;;;;;37.33;13.98;;;13.90;76.90;;;;;;7388680;19;20023;-84
2022/11/15 01:52:49;;;;;;;26.60;9.18;;;13.90;77.00;;;;;;7387306;19;20021;-84
2022/11/15 01:55:23;;;;;;;15.48;5.03;;;13.90;77.00;;;;;;7389155;19;20346;-84
2022/11/15 01:57:57;;;;;;;20.92;3.67;;;13.90;77.20;;;;;;7405181;19;20110;-84
2022/11/15 02:00:26;;;;;;;9.02;3.15;;;13.90;76.90;;;;;;7388684;19;20026;-84
2022/11/15 02:03:01;;;;;;;10.63;2.85;;;13.80;76.70;;;;;;7385248;19;20339;-84
2022/11/15 02:05:35;;;;;;;17.10;3.05;;;13.80;76.70;;;;;;7383485;19;20006;-84
2022/11/15 02:08:05;;;;;;;11.48;2.92;;;13.80;76.70;;;;;;7384604;19;20014;-84
2022/11/15 02:10:38;;;;;;;10.82;2.88;;;13.80;76.70;;;;;;7386765;19;20625;-84
2022/11/15 02:13:07;;;;;;;10.75;2.88;;;13.70;76.60;;;;;;7384188;19;20018;-85
2022/11/15 02:15:54;;;;;;;10.32;3.00;;;13.70;76.60;;;;;;7402019;19;20445;-84
2022/11/15 02:18:41;;;;;;;13.80;2.97;;;13.70;76.60;;;;;;7378065;19;20022;-84
2022/11/15 02:21:20;;;;;;;20.40;3.55;;;13.70;76.40;;;;;;7378655;19;20018;-84
2022/11/15 02:24:14;;;;;;;12.70;2.88;;;13.70;76.40;;;;;;7389024;19;20015;-84
2022/11/15 02:27:26;;;;;;;10.25;2.80;;;13.60;77.10;;;;;;7390112;19;20031;-83
2022/11/15 02:30:26;;;;;;;16.13;3.10;;;13.60;76.20;;;;;;7381929;19;20047;-83
2022/11/15 02:33:03;;;;;;;10.95;2.53;;;13.60;76.70;;;;;;7378332;19;20011;-84
2022/11/15 02:35:42;;;;;;;9.10;3.05;;;13.60;75.80;;;;;;7376610;19;20293;-84
2022/11/15 02:38:19;;;;;;;14.18;3.40;;;13.60;75.90;;;;;;7377696;19;20021;-83
2022/11/15 02:40:54;;;;;;;18.25;3.40;;;13.60;75.80;;;;;;7376375;19;20010;-83
2022/11/15 02:46:22;;;;;;;9.05;2.78;;;13.60;75.70;;;;;;7379745;19;20639;-83
2022/11/15 02:49:00;;;;;;;13.77;3.00;;;13.60;75.70;;;;;;7399710;19;20114;-83
2022/11/15 02:51:31;;;;;;;12.90;3.00;;;13.60;75.70;;;;;;7377519;19;20031;-84
2022/11/15 02:53:59;;;;;;;10.57;2.75;;;13.60;75.50;;;;;;7378260;19;20018;-84
2022/11/15 02:56:28;;;;;;;10.82;2.78;;;13.60;75.50;;;;;;7376058;19;20105;-83
2022/11/15 02:59:27;;;;;;;8.82;2.78;;;13.60;75.60;;;;;;7383576;19;20086;-83
2022/11/15 03:02:11;;;;;;;13.10;3.20;;;13.60;75.70;;;;;;7385280;19;20023;-83
2022/11/15 03:04:46;;;;;;;9.65;2.90;;;13.60;75.60;;;;;;7379553;19;20023;-83
2022/11/15 03:07:21;;;;;;;11.20;3.08;;;13.60;75.50;;;;;;7378604;19;20015;-84
2022/11/15 03:09:57;;;;;;;16.50;3.28;;;13.60;75.40;;;;;;7400648;19;20023;-84
2022/11/15 03:12:32;;;;;;;9.50;3.22;;;13.70;75.50;;;;;;7379690;19;20462;-83
2022/11/15 03:15:06;;;;;;;22.38;3.53;;;13.70;75.50;;;;;;7376255;19;20022;-83
2022/11/15 03:17:45;;;;;;;12.68;3.58;;;13.70;75.50;;;;;;7376912;19;20125;-82
2022/11/15 03:20:19;;;;;;;14.02;3.33;;;13.70;76.30;;;;;;7380511;19;20015;-82
2022/11/15 03:22:52;;;;;;;14.18;3.40;;;13.70;75.30;;;;;;7377898;19;20058;-82
2022/11/15 03:25:26;;;;;;;11.60;3.42;;;13.70;75.30;;;;;;7378679;19;20010;-83
2022/11/15 03:27:58;;;;;;;16.25;4.35;;;13.70;75.30;;;;;;7400012;19;20020;-83
2022/11/15 03:30:27;;;;;;;18.00;4.57;;;13.70;75.30;;;;;;7376971;19;20023;-83
2022/11/15 03:33:06;;;;;;;16.67;3.60;;;13.70;75.30;;;;;;7379158;19;20086;-82
2022/11/15 03:35:40;;;;;;;11.20;3.65;;;13.60;75.30;;;;;;7388487;19;20445;-83
2022/11/15 03:38:14;;;;;;;18.77;3.92;;;13.70;75.40;;;;;;7385772;19;20480;-83
2022/11/15 03:40:50;;;;;;;13.43;3.30;;;13.60;75.20;;;;;;7376751;19;20015;-83
2022/11/15 03:43:27;;;;;;;11.20;3.25;;;13.60;75.10;;;;;;7376197;19;20011;-83
2022/11/15 03:46:02;;;;;;;14.90;3.45;;;13.50;75.20;;;;;;7391446;19;20022;-81
2022/11/15 03:48:38;;;;;;;13.77;3.33;;;13.60;75.20;;;;;;7395901;19;20047;-82
2022/11/15 03:51:09;;;;;;;9.70;3.33;;;13.50;75.30;;;;;;7373047;19;20799;-82
2022/11/15 03:53:37;;;;;;;8.88;3.15;;;13.60;75.30;;;;;;7375476;19;20031;-83
2022/11/15 03:56:09;;;;;;;14.48;3.30;;;13.60;75.30;;;;;;7384010;19;20027;-84
2022/11/15 03:58:38;;;;;;;13.73;3.65;;;13.50;75.10;;;;;;7385099;19;20019;-83
2022/11/15 04:01:07;;;;;;;11.48;3.30;;;13.50;75.10;;;;;;7378552;19;20499;-84
2022/11/15 04:03:38;;;;;;;12.18;3.20;;;13.40;75.20;;;;;;7399291;19;20480;-83
2022/11/15 04:06:17;;;;;;;;;;;;;;;;;;;;;
2022/11/15 04:08:46;;;;;;;15.15;3.88;;;13.40;75.20;;;;;;7375348;19;20014;-83
2022/11/15 04:11:15;;;;;;;15.13;3.72;;;13.40;75.20;;;;;;7374001;19;20628;-82
2022/11/15 04:13:44;;;;;;;10.70;3.42;;;13.40;75.20;;;;;;7374878;19;20078;-82
2022/11/15 04:16:13;;;;;;;10.23;3.60;;;13.40;75.20;;;;;;7385413;19;20023;-83
2022/11/15 04:24:11;;;;;;;10.10;3.63;;;13.40;75.10;;;;;;7412234;19;20418;-82
2022/11/15 04:24:19;;;;;;;14.38;4.13;;;13.40;75.20;;;;;;7381298;19;20017;-83
2022/11/15 04:26:48;;;;;;;9.10;3.70;;;13.30;75.00;;;;;;7386261;19;20007;-82
2022/11/15 04:31:59;;;;;;;14.25;3.60;;;13.30;75.00;;;;;;7397813;19;20021;-83
2022/11/15 04:34:31;;;;;;;7.32;3.38;;;13.30;74.90;;;;;;7390601;19;20047;-83
2022/11/15 04:37:12;;;;;;;;;;;13.20;75.00;;;;;;7386772;19;20007;-81
2022/11/15 04:39:42;;;;;;;10.77;3.53;;;13.30;75.00;;;;;;7406549;19;19925;-81
2022/11/15 04:42:12;;;;;;;8.02;3.15;;;13.20;74.90;;;;;;7383001;19;20014;-82
2022/11/15 04:44:43;;;;;;;12.00;3.95;;;13.20;74.90;;;;;;7381890;19;20576;-82
2022/11/15 04:47:12;;;;;;;10.38;4.28;;;13.20;74.90;;;;;;7381945;19;20067;-83
2022/11/15 04:49:43;;;;;;;12.25;3.70;;;13.20;74.80;;;;;;7381753;19;20018;-83
2022/11/15 04:52:16;;;;;;;12.23;4.13;;;13.10;74.60;;;;;;7388236;19;20023;-83
2022/11/15 04:54:45;;;;;;;10.48;3.70;;;13.10;74.40;;;;;;7424671;19;20009;-85
2022/11/15 04:57:16;;;;;;;11.23;4.03;;;13.00;74.30;;;;;;7410071;19;20023;-82
2022/11/15 04:59:45;;;;;;;13.27;3.58;;;13.00;74.40;;;;;;7401760;19;20006;-82
2022/11/15 05:02:14;;;;;;;13.52;4.07;;;13.00;74.50;;;;;;7388757;19;20025;-83
2022/11/15 05:04:43;;;;;;;11.15;3.67;;;13.00;74.60;;;;;;7382966;19;20443;-83
2022/11/15 05:07:11;;;;;;;13.18;4.00;;;13.00;75.00;;;;;;7379162;19;20015;-83
2022/11/15 05:09:45;;;;;;;13.82;3.33;;;13.00;74.40;;;;;;7400141;19;20010;-86
2022/11/15 05:12:14;;;;;;;14.88;3.63;;;12.90;74.30;;;;;;7380453;19;20833;-87
2022/11/15 05:14:43;;;;;;;10.25;3.70;;;13.00;74.40;;;;;;7380248;19;20082;-86
2022/11/15 05:17:12;;;;;;;16.85;4.05;;;12.90;75.20;;;;;;7381190;19;20464;-84
2022/11/15 05:19:44;;;;;;;13.98;3.70;;;13.00;74.40;;;;;;7381328;19;20030;-86
2022/11/15 05:22:15;;;;;;;10.15;3.60;;;13.00;74.50;;;;;;7377800;19;20025;-84
2022/11/15 05:24:44;;;;;;;10.32;3.85;;;13.00;74.60;;;;;;7401026;19;20015;-84
2022/11/15 05:27:13;;;;;;;13.15;4.15;;;13.00;74.70;;;;;;7377140;19;20064;-84
2022/11/15 05:29:41;;;;;;;11.55;3.50;;;13.00;74.70;;;;;;7376966;19;20011;-84
2022/11/15 05:32:12;;;;;;;14.48;4.45;;;13.10;74.90;;;;;;7378577;19;20014;-85
2022/11/15 05:34:40;;;;;;;13.27;4.20;;;13.10;74.90;;;;;;7379302;19;20338;-83
2022/11/15 05:37:10;;;;;;;16.00;3.95;;;13.10;74.90;;;;;;7375954;19;20093;-82
2022/11/15 05:39:41;;;;;;;13.95;3.45;;;13.20;75.10;;;;;;7397051;19;20044;-83
2022/11/15 05:42:12;;;;;;;12.05;4.38;;;13.20;75.20;;;;;;7378203;19;20017;-83
2022/11/15 05:44:44;;;;;;;12.57;3.50;;;13.20;75.40;;;;;;7377507;19;20021;-83
2022/11/15 05:47:15;;;;;;;11.25;3.47;;;13.20;75.60;;;;;;7377526;19;20101;-83
2022/11/15 05:49:45;;;;;;;;;;;13.30;75.80;;;;;;7378700;19;20085;-83
2022/11/15 05:52:17;;;;;;;5.88;2.88;;;13.40;76.00;;;;;;7374717;19;19986;-83
2022/11/15 05:54:49;;;;;;;10.43;3.25;;;13.40;75.90;;;;;;7398610;19;20435;-83
2022/11/15 05:57:18;;;;;;;11.57;3.22;;;13.40;76.00;;;;;;7376442;19;20020;-82
2022/11/15 05:59:46;;;;;;;8.02;3.53;;;13.40;76.10;;;;;;7375065;19;20019;-84
2022/11/15 06:02:15;;;;;;;10.30;3.47;;;13.50;76.30;;;;;;7377801;19;20102;-84
2022/11/15 06:04:44;;;;;;;19.90;3.90;;;13.50;76.50;;;;;;7377206;19;20375;-84
2022/11/15 06:07:13;;;;;;;10.00;3.75;;;13.50;76.60;;;;;;7377043;19;20086;-84
2022/11/15 06:09:42;;;;;;;16.05;3.78;;;13.50;76.60;;;;;;7395736;19;20086;-84
2022/11/15 06:12:17;;;;;;;21.67;4.05;;;13.50;76.60;;;;;;7373961;19;20010;-84
2022/11/15 06:14:45;;;;;;;15.18;4.18;;;13.50;76.70;;;;;;7373782;19;20067;-85
2022/11/15 06:17:14;;;;;;;14.38;4.00;;;13.50;76.70;;;;;;7374628;19;20019;-84
2022/11/15 06:19:43;;;;;;;15.88;4.55;;;13.60;76.80;;;;;;7375390;19;20018;-85
2022/11/15 06:22:13;;;;;;;14.15;4.30;;;13.60;76.80;;;;;;7375384;19;20029;-84
2022/11/15 06:24:43;;;;;;;12.68;4.20;;;13.60;77.00;;;;;;7396190;19;20739;-83
2022/11/15 06:27:16;;;;;;;14.68;4.50;;;13.60;76.90;;;;;;7375802;19;20342;-80
2022/11/15 06:29:44;;;;;;;19.10;4.40;;;13.60;76.90;;;;;;7375112;19;20043;-86
2022/11/15 06:32:13;;;;;;;14.93;4.53;;;13.60;77.00;;;;;;7385159;19;20042;-85
2022/11/15 06:34:42;;;;;;;10.63;5.07;;;13.60;77.20;;;;;;7380602;19;20741;-89
2022/11/15 06:37:12;;;;;;;18.35;5.50;;;13.60;77.30;;;;;;7400095;19;20020;-89
2022/11/15 06:39:41;;;;;;;12.43;4.70;;;13.60;77.30;;;;;;7407190;19;20105;-80
2022/11/15 06:42:11;;;;;;;17.50;4.97;;;13.60;77.30;;;;;;7371076;19;20015;-78
2022/11/15 06:44:42;;;;;;;10.00;4.70;;;13.50;77.30;;;;;;7371994;19;20406;-77
2022/11/15 06:47:11;;;;;;;25.00;5.68;;;13.60;77.50;;;;;;7371098;19;20035;-77
2022/11/15 06:49:40;;;;;;;13.02;5.45;;;13.50;77.50;;;;;;7369546;19;20024;-80
2022/11/15 06:52:08;;;;;;;13.02;5.22;;;13.60;77.70;;;;;;7367443;19;20022;-81
2022/11/15 06:54:37;;;;;;;15.13;4.63;;;13.50;77.60;;;;;;7390348;19;20022;-81
2022/11/15 06:57:07;;;;;;;11.23;4.47;;;13.60;77.70;;;;;;7372740;19;20572;-81
2022/11/15 06:59:36;;;;;;;8.38;4.32;;;13.50;77.70;;;;;;7374050;19;20028;-82
2022/11/15 07:02:07;;;;;;;12.93;4.25;;;13.50;77.70;;;;;;7373871;19;20501;-81
2022/11/15 07:04:37;;;;;;;13.77;4.00;;;13.50;77.90;;;;;;7375236;19;20018;-82
2022/11/15 07:07:06;;;;;;;11.77;4.40;;;13.50;78.60;;;;;;7372110;19;20015;-82
2022/11/15 07:09:34;;;;;;;15.98;3.97;;;13.50;77.90;;;;;;7392095;19;20043;-82
2022/11/15 07:12:03;;;;;;;13.35;4.03;;;13.50;78.10;;;;;;7373702;19;20018;-81
2022/11/15 07:14:32;;;;;;;11.85;4.13;;;13.50;78.10;;;;;;7376915;19;20031;-81
2022/11/15 07:17:01;;;;;;;15.13;4.13;;;13.50;78.20;;;;;;7372458;19;20098;-81
2022/11/15 07:19:32;;;;;;;24.40;3.97;;;13.50;78.40;;;;;;7373581;19;20083;-81
2022/11/15 07:22:00;;;;;;;13.27;3.88;;;13.40;78.50;;;;;;7372754;19;20018;-80
2022/11/15 07:24:29;;;;;;;14.32;3.75;;;13.40;78.50;;;;;;7393474;19;20026;-81
2022/11/15 07:26:58;;;;;;;9.43;3.83;;;13.50;78.60;;;;;;7374005;19;20038;-81
2022/11/15 07:29:27;;;;;;;11.52;4.10;;;13.50;78.60;;;;;;7372226;19;20011;-81
2022/11/15 07:31:55;;;;;;;9.05;3.80;;;13.50;78.70;;;;;;7375650;19;20097;-81
2022/11/15 07:34:24;;;;;;;13.25;4.47;;;13.50;78.70;;;;;;7373305;19;20586;-82
2022/11/15 07:36:56;;;;;;;18.45;4.32;;;13.50;78.80;;;;;;7394973;19;20010;-81
2022/11/15 07:39:24;;;;;;;17.98;5.45;;;13.50;78.90;;;;;;7374158;19;20018;-81
2022/11/15 07:42:52;;;;;;;23.73;6.20;;;13.60;79.10;;;;;;7372156;19;20122;-81
2022/11/15 07:44:41;;;;;;;18.63;5.38;;;13.60;79.10;;;;;;7371723;19;20010;-82
2022/11/15 07:47:10;;;;;;;19.58;5.10;;;13.60;78.90;;;;;;7372336;19;20471;-82
2022/11/15 07:49:39;;;;;;;19.05;5.78;;;13.60;79.10;;;;;;7370320;19;20017;-82
2022/11/15 07:52:10;;;;;;;16.70;5.05;;;13.70;79.10;;;;;;7368853;19;20085;-81
2022/11/15 07:54:39;;;;;;;14.20;4.30;;;13.70;79.10;;;;;;7393498;19;20015;-81
2022/11/15 07:57:09;;;;;;;10.82;4.28;;;13.80;79.10;;;;;;7372751;19;20031;-81
2022/11/15 07:59:37;;;;;;;17.30;4.55;;;13.80;79.40;;;;;;7370956;19;20170;-82
2022/11/15 08:02:06;;;;;;;20.13;5.43;;;13.80;79.10;;;;;;7370729;19;20017;-81
2022/11/15 08:04:35;;;;;;;17.15;4.70;;;13.80;79.10;;;;;;7371759;19;20017;-81
2022/11/15 08:07:03;;;;;;;13.88;3.88;;;13.90;79.10;;;;;;7370890;19;20029;-81
2022/11/15 08:09:35;;;;;;;16.65;4.57;;;13.80;79.10;;;;;;7390782;19;20382;-81
2022/11/15 08:12:03;;;;;;;10.55;4.90;;;13.90;79.10;;;;;;7369331;19;20820;-82
2022/11/15 08:14:32;;;;;;;17.17;4.45;;;13.90;79.10;;;;;;7372195;19;20010;-81
2022/11/15 08:17:01;;;;;;;15.20;4.28;;;13.90;79.20;;;;;;7371673;19;20015;-81
2022/11/15 08:19:29;;;;;;;13.95;5.03;;;14.00;79.30;;;;;;7370529;19;20094;-81
2022/11/15 08:21:58;;;;;;;13.88;4.40;;;14.00;79.30;;;;;;7367371;19;20583;-81
2022/11/15 08:24:29;;;;;;;11.07;3.72;;;14.00;79.30;;;;;;7390381;19;20018;-82
2022/11/15 08:27:00;;;;;;;18.80;4.10;;;14.10;79.30;;;;;;7372810;19;20085;-81
2022/11/15 08:29:28;;;;;;;21.45;4.63;;;14.10;79.20;;;;;;7369116;19;20010;-82
2022/11/15 08:31:58;;;;;;;12.75;3.90;;;14.10;79.30;;;;;;7368318;19;20022;-82
2022/11/15 08:34:26;;;;;;;15.93;4.28;;;14.10;79.40;;;;;;7369216;19;20071;-81
2022/11/15 08:36:55;;;;;;;13.60;4.97;;;14.20;79.30;;;;;;7391858;19;20513;-81
2022/11/15 08:39:24;;;;;;;14.40;4.53;;;14.20;79.30;;;;;;7368109;19;20010;-82
2022/11/15 08:41:52;;;;;;;11.43;4.40;;;14.30;79.30;;;;;;7370053;19;20015;-82
2022/11/15 08:44:24;;;;;;;10.77;4.15;;;14.30;79.20;;;;;;7369299;19;20011;-82
2022/11/15 08:46:52;;;;;;;12.32;3.50;;;14.30;79.10;;;;;;7370217;19;20098;-82
2022/11/15 08:49:21;;;;;;;9.95;3.78;;;14.40;79.10;;;;;;7369572;19;20094;-81
2022/11/15 08:51:51;;;;;;;6.90;3.22;;;14.40;78.90;;;;;;7387839;19;20564;-81
2022/11/15 08:54:20;;;;;;;10.15;3.45;;;14.40;78.70;;;;;;7368591;19;20022;-81
2022/11/15 08:56:48;;;;;;;7.00;3.03;;;14.40;78.80;;;;;;7368122;19;20019;-81
2022/11/15 08:59:17;;;;;;;11.63;4.15;;;14.50;78.70;;;;;;7369478;19;20019;-81
2022/11/15 09:01:49;;;;;;;15.10;3.50;;;14.50;78.70;;;;;;7368763;19;20018;-80
2022/11/15 09:04:18;;;;;;;8.75;3.13;;;14.50;79.00;;;;;;7368580;19;20121;-81
2022/11/15 09:06:49;;;;;;;15.38;3.65;;;14.50;78.40;;;;;;7390439;19;20032;-81
2022/11/15 09:09:17;;;;;;;12.82;3.85;;;14.50;78.30;;;;;;7368263;19;20097;-81
2022/11/15 09:11:46;;;;;;;9.48;3.33;;;14.50;78.40;;;;;;7367660;19;20337;-81
2022/11/15 09:14:16;;;;;;;10.38;3.17;;;14.50;78.40;;;;;;7368249;19;20469;-81
2022/11/15 09:16:44;;;;;;;7.35;3.20;;;14.40;78.10;;;;;;7376010;19;20014;-82
2022/11/15 09:19:16;;;;;;;9.35;3.00;;;14.40;78.20;;;;;;7379365;19;20050;-81
2022/11/15 09:21:44;;;;;;;9.40;3.35;;;14.40;78.20;;;;;;7397995;19;20023;-81
2022/11/15 09:24:13;;;;;;;10.52;3.00;;;14.40;78.30;;;;;;7375697;19;20006;-81
2022/11/15 09:26:42;;;;;;;10.40;2.92;;;14.50;78.30;;;;;;7374599;19;20062;-82
2022/11/15 09:29:11;;;;;;;6.45;2.03;;;14.50;78.30;;;;;;7374661;19;20011;-81
2022/11/15 09:31:39;;;;;;;7.90;2.20;;;14.50;77.70;;;;;;7375190;19;20453;-81
2022/11/15 09:34:08;;;;;;;6.45;2.75;;;14.50;77.70;;;;;;7373152;19;20035;-82
2022/11/15 09:36:39;;;;;;;8.25;2.55;;;14.60;77.40;;;;;;7393547;19;20011;-82
2022/11/15 09:39:08;;;;;;;7.90;2.35;;;14.60;77.40;;;;;;7373970;19;20094;-82
2022/11/15 09:42:05;;;;;;;8.30;2.65;;;14.60;77.30;;;;;;7373374;19;20114;-82
2022/11/15 09:45:02;;;;;;;5.72;2.47;;;14.60;77.40;;;;;;7373706;19;20015;-82
2022/11/15 09:47:56;;;;;;;11.18;2.63;;;14.60;77.80;;;;;;7374409;19;20014;-82
2022/11/15 09:50:38;;;;;;;11.00;2.50;;;14.60;77.90;;;;;;7375803;19;20134;-83
2022/11/15 09:53:14;;;;;;;5.68;2.47;;;14.60;78.00;;;;;;7374139;19;20379;-83
2022/11/15 09:55:51;;;;;;;8.75;2.30;;;14.50;78.40;;;;;;7373074;19;20017;-83
2022/11/15 09:58:30;;;;;;;11.25;2.25;;;14.50;78.90;;;;;;7373655;19;20066;-83
2022/11/15 10:01:02;;;;;;;10.13;2.20;;;14.50;79.00;;;;;;7377660;19;20010;-83
2022/11/15 10:03:36;;;;;;;6.55;2.97;;;14.60;79.10;;;;;;7396180;19;20022;-83
2022/11/15 10:06:07;;;;;;;12.43;3.00;;;14.60;79.20;;;;;;7374050;19;20331;-83
2022/11/15 10:08:54;;;;;;;8.77;2.85;;;14.60;79.50;;;;;;7374375;19;20010;-83
2022/11/15 10:11:25;;;;;;;8.40;2.42;;;14.70;79.80;;;;;;7374694;19;20010;-83
2022/11/15 10:13:57;;;;;;;8.02;2.67;;;14.70;79.80;;;;;;7374313;19;20780;-83
2022/11/15 10:16:59;;;;;;;7.10;2.88;;;14.80;79.90;;;;;;7375590;19;20014;-83
2022/11/15 10:19:36;;;;;;;10.18;3.15;;;14.80;80.20;;;;;;7369870;19;20017;-83
2022/11/15 10:22:27;;;;;;;10.88;2.80;;;14.90;80.20;;;;;;7373146;19;20086;-82
2022/11/15 10:25:12;;;;;;;10.13;2.63;;;14.90;80.20;;;;;;7388800;19;20567;-80
2022/11/15 10:27:42;;;;;;;6.43;3.03;;;14.90;80.00;;;;;;7391157;19;20037;-82
2022/11/15 10:30:17;;;;;;;5.50;2.55;;;15.00;80.20;;;;;;7370345;19;20026;-83
2022/11/15 10:32:47;;;;;;;9.63;3.17;;;14.90;80.30;;;;;;7368251;19;20074;-83
2022/11/15 10:35:26;;;;;;;10.18;3.10;;;14.90;80.30;;;;;;7371117;19;20359;-83
2022/11/15 10:37:59;;;;;;;7.43;3.35;;;14.90;80.50;;;;;;7369695;19;20022;-83
2022/11/15 10:40:30;;;;;;;6.38;2.90;;;15.00;80.50;;;;;;7373311;19;20025;-83
2022/11/15 10:43:08;;;;;;;8.73;3.60;;;14.90;80.40;;;;;;7371414;19;20033;-82
2022/11/15 10:45:38;;;;;;;10.93;3.20;;;14.90;80.50;;;;;;7390097;19;20019;-83
2022/11/15 10:48:24;;;;;;;11.20;3.63;;;14.90;80.50;;;;;;7370729;19;20533;-83
2022/11/15 10:50:56;;;;;;;8.18;3.33;;;14.90;80.80;;;;;;7370543;19;20010;-82
2022/11/15 10:53:30;;;;;;;10.55;3.85;;;14.90;80.80;;;;;;7369374;19;20113;-83
2022/11/15 10:56:07;;;;;;;8.77;4.15;;;14.90;81.10;;;;;;7369405;19;20400;-82
2022/11/15 10:58:40;;;;;;;13.25;3.78;;;14.90;81.20;;;;;;7371938;19;20081;-83
2022/11/15 11:01:19;;;;;;;11.38;3.92;;;14.90;81.20;;;;;;7373984;19;20023;-83
2022/11/15 11:04:01;;;;;;;10.15;4.47;;;14.90;81.30;;;;;;7397629;19;20871;-82
2022/11/15 11:06:30;;;;;;;13.57;4.93;;;14.90;81.50;;;;;;7375259;19;20014;-83
2022/11/15 11:09:02;;;;;;;11.45;4.47;;;14.90;81.30;;;;;;7372611;19;20102;-82
2022/11/15 11:11:48;;;;;;;10.85;4.60;;;14.90;81.50;;;;;;7377326;19;20010;-83
2022/11/15 11:14:25;;;;;;;9.00;3.83;;;14.90;81.80;;;;;;7378493;19;20019;-83
2022/11/15 11:16:57;;;;;;;10.90;3.92;;;14.90;81.80;;;;;;7374699;19;20048;-82
2022/11/15 11:19:53;;;;;;;10.48;4.28;;;14.90;82.60;;;;;;7373104;19;20021;-83
2022/11/15 11:22:28;;;;;;;11.63;4.68;;;14.90;81.90;;;;;;7374292;19;20010;-83
2022/11/15 11:25:07;;;;;;;14.63;4.85;;;14.90;81.90;;;;;;7378430;19;20010;-82
2022/11/15 11:27:49;;;;;;;8.60;4.80;;;14.90;82.10;;;;;;7392605;19;20014;-83
2022/11/15 11:30:22;;;;;;;11.75;5.20;;;14.90;82.10;;;;;;7371688;19;20466;-83
2022/11/15 11:33:20;;;;;;;8.68;5.07;;;14.90;82.10;;;;;;7372403;19;20086;-82
2022/11/15 11:35:59;;;;;;;9.70;4.82;;;14.90;82.50;;;;;;7372553;19;20010;-83
2022/11/15 11:38:43;;;;;;;9.50;5.32;;;14.90;82.30;;;;;;7375594;19;20014;-83
2022/11/15 11:41:22;;;;;;;10.40;5.35;;;14.80;82.50;;;;;;7373231;19;20441;-83
2022/11/15 11:44:03;;;;;;;11.05;4.90;;;14.80;82.60;;;;;;7373263;19;20018;-82
2022/11/15 11:46:50;;;;;;;13.65;5.32;;;14.90;82.80;;;;;;7376609;19;20018;-83
2022/11/15 11:49:24;;;;;;;10.38;5.03;;;14.90;82.90;;;;;;7375331;19;20093;-82
2022/11/15 11:51:57;;;;;;;15.43;5.25;;;14.80;82.90;;;;;;7394594;19;20028;-83
2022/11/15 11:54:37;;;;;;;9.65;4.57;;;14.90;83.10;;;;;;7370722;19;20015;-83
2022/11/15 11:57:09;;;;;;;9.73;4.72;;;14.90;83.10;;;;;;7371576;19;20030;-83
2022/11/15 11:59:46;;;;;;;10.45;4.90;;;14.90;83.20;;;;;;7370629;19;20021;-83
2022/11/15 12:02:20;;;;;;;8.27;4.70;;;14.90;83.30;;;;;;7372751;19;20014;-83
2022/11/15 12:04:53;;;;;;;10.95;5.25;;;14.90;83.20;;;;;;7369882;19;20803;-82
2022/11/15 12:07:29;;;;;;;9.88;5.30;;;14.90;83.30;;;;;;7368750;19;20420;-83
2022/11/15 12:10:01;;;;;;;9.65;5.15;;;14.90;83.40;;;;;;7369041;19;20375;-81
2022/11/15 12:12:37;;;;;;;13.98;5.68;;;14.90;83.60;;;;;;7390053;19;20333;-82
2022/11/15 12:15:19;;;;;;;9.73;5.60;;;14.90;83.70;;;;;;7372045;19;20015;-83
2022/11/15 12:17:48;;;;;;;8.32;5.25;;;14.90;83.80;;;;;;7372874;19;20024;-83
2022/11/15 12:20:20;;;;;;;12.10;5.20;;;14.90;84.00;;;;;;7372172;19;20035;-83
2022/11/15 12:22:55;;;;;;;13.10;5.25;;;14.90;84.10;;;;;;7373071;19;20006;-82
2022/11/15 12:25:29;;;;;;;16.52;6.07;;;15.00;84.20;;;;;;7373730;19;20007;-82
2022/11/15 12:28:02;;;;;;;9.70;5.05;;;15.10;84.30;;;;;;7370260;19;20014;-81
2022/11/15 12:30:44;;;;;;;11.85;4.60;;;15.10;84.20;;;;;;7390172;19;20018;-82
2022/11/15 12:33:36;;;;;;;16.02;4.43;;;15.10;84.40;;;;;;7369417;19;20759;-82
2022/11/15 12:36:07;;;;;;;11.40;5.55;;;15.20;84.40;;;;;;7369843;19;20017;-83
2022/11/15 12:38:58;;;;;;;11.95;4.57;;;15.20;84.10;;;;;;7370707;19;20085;-82
2022/11/15 12:41:29;;;;;;;11.27;5.55;;;15.30;84.20;;;;;;7370580;19;20018;-82
2022/11/15 12:43:59;;;;;;;12.05;5.57;;;15.20;84.00;;;;;;7373332;19;20050;-82
2022/11/15 12:47:06;;;;;;;10.93;4.43;;;15.30;84.20;;;;;;7371288;19;20625;-82
2022/11/15 12:49:55;;;;;;;12.52;4.90;;;15.20;84.20;;;;;;7369836;19;20106;-82
2022/11/15 12:52:24;;;;;;;9.77;4.78;;;15.20;85.00;;;;;;7376317;19;20074;-82
2022/11/15 12:54:58;;;;;;;10.95;4.97;;;15.30;84.00;;;;;;7397262;19;20019;-82
2022/11/15 12:57:39;;;;;;;11.60;5.00;;;15.30;84.20;;;;;;7377515;19;20010;-82
2022/11/15 13:00:41;;;;;;;16.17;5.28;;;15.40;84.20;;;;;;7376052;19;20021;-82
2022/11/15 13:03:31;;;;;;;10.07;5.13;;;15.40;84.20;;;;;;7375656;19;20077;-82
2022/11/15 13:06:32;;;;;;;20.48;6.10;;;15.40;84.00;;;;;;7375866;19;20029;-82
2022/11/15 13:09:01;;;;;;;12.95;5.03;;;15.40;84.10;;;;;;7375158;19;20343;-82
2022/11/15 13:11:47;;;;;;;9.38;4.82;;;15.50;83.90;;;;;;7375472;19;20017;-82
2022/11/15 13:14:47;;;;;;;9.18;4.32;;;15.40;84.20;;;;;;7374386;19;20025;-82
2022/11/15 13:17:37;;;;;;;12.18;5.15;;;15.50;84.30;;;;;;7374932;19;20111;-82
2022/11/15 13:20:24;;;;;;;8.60;4.53;;;15.50;84.20;;;;;;7376405;19;20493;-82
2022/11/15 13:23:03;;;;;;;13.05;4.68;;;15.50;84.10;;;;;;7377177;19;20022;-83
2022/11/15 13:25:54;;;;;;;10.07;4.32;;;15.50;83.90;;;;;;7379574;19;20051;-83